Time;durP1;ratioP1;P1;durP2;ratioP2;P2;SDS_P1;SDS_P2;PMS_P1;PMS_P2;Temp;Humidity;BMP_temperature;BMP_pressure;BME280_temperature;BME280_humidity;BME280_pressure;Samples;Min_cycle;Max_cycle;Signal;HPM_P1;HPM_P2
2023/06/07 00:01:36;;;;;;;;;;;11.70;99.90;;;;;;5091099;28;19935;-82
2023/06/07 00:04:02;;;;;;;;;;;11.70;99.90;;;;;;5072796;28;19928;-83
2023/06/07 00:06:28;;;;;;;;;;;11.70;99.90;;;;;;5089942;28;19939;-82
2023/06/07 00:08:54;;;;;;;;;;;11.50;99.90;;;;;;5086220;28;19938;-82
2023/06/07 00:11:21;;;;;;;;;;;11.60;99.90;;;;;;5092297;28;20004;-83
2023/06/07 00:13:47;;;;;;;;;;;11.60;99.90;;;;;;5073336;28;20300;-82
2023/06/07 00:16:13;;;;;;;;;;;11.50;99.90;;;;;;5073804;28;19935;-82
2023/06/07 00:18:40;;;;;;;;;;;11.50;99.90;;;;;;5090198;28;20389;-82
2023/06/07 00:21:06;;;;;;;;;;;11.60;99.90;;;;;;5083787;28;19935;-82
2023/06/07 00:23:32;;;;;;;;;;;11.50;99.90;;;;;;5085793;28;19932;-82
2023/06/07 00:25:59;;;;;;;;;;;11.60;99.90;;;;;;5093346;28;20001;-82
2023/06/07 00:28:25;;;;;;;;;;;11.50;99.90;;;;;;5087509;28;19923;-83
2023/06/07 00:30:50;;;;;;;;;;;11.40;99.90;;;;;;5084724;28;19951;-82
2023/06/07 00:33:16;;;;;;;;;;;11.50;99.90;;;;;;5088039;28;19928;-82
2023/06/07 00:35:42;;;;;;;;;;;11.40;99.90;;;;;;5084588;28;19985;-82
2023/06/07 00:38:07;;;;;;;;;;;11.40;99.90;;;;;;5089982;28;19928;-83
2023/06/07 00:40:33;;;;;;;;;;;11.30;99.90;;;;;;5073332;28;19927;-83
2023/06/07 00:42:58;;;;;;;;;;;11.30;99.90;;;;;;5084951;28;19931;-82
2023/06/07 00:45:24;;;;;;;;;;;11.20;99.90;;;;;;5090542;28;19931;-82
2023/06/07 00:47:49;;;;;;;;;;;11.20;99.90;;;;;;5092811;28;19942;-83
2023/06/07 00:50:15;;;;;;;;;;;11.20;99.90;;;;;;5087533;28;19927;-83
2023/06/07 00:52:40;;;;;;;;;;;11.20;99.90;;;;;;5088041;28;19934;-82
2023/06/07 00:55:06;;;;;;;;;;;11.10;99.90;;;;;;5076189;28;19932;-82
2023/06/07 00:57:33;;;;;;;;;;;11.10;99.90;;;;;;5090115;28;19928;-82
2023/06/07 00:59:59;;;;;;;;;;;11.00;99.90;;;;;;5065175;28;19985;-82
2023/06/07 01:02:26;;;;;;;;;;;11.00;99.90;;;;;;5090437;28;19994;-82
2023/06/07 01:04:52;;;;;;;;;;;11.00;99.90;;;;;;5087693;28;20270;-82
2023/06/07 01:07:22;;;;;;;;;;;11.00;99.90;;;;;;5089109;28;20503;-82
2023/06/07 01:09:47;;;;;;;;;;;11.10;99.90;;;;;;5086442;28;19931;-82
2023/06/07 01:12:14;;;;;;;;;;;11.00;99.90;;;;;;5093131;28;19927;-81
2023/06/07 01:14:39;;;;;;;;;;;11.00;99.90;;;;;;5093765;28;19939;-82
2023/06/07 01:17:05;;;;;;;;;;;11.00;99.90;;;;;;5083983;28;20015;-82
2023/06/07 01:19:34;;;;;;;;;;;11.00;99.90;;;;;;5096717;28;19943;-82
2023/06/07 01:22:02;;;;;;;;;;;11.00;99.90;;;;;;5080245;28;19986;-82
2023/06/07 01:24:29;;;;;;;;;;;11.00;99.90;;;;;;5088326;28;19967;-82
2023/06/07 01:27:00;;;;;;;;;;;11.00;99.90;;;;;;5087431;28;19927;-82
2023/06/07 01:29:25;;;;;;;;;;;11.00;99.90;;;;;;5088949;28;19978;-82
2023/06/07 01:31:52;;;;;;;;;;;11.00;99.90;;;;;;5091078;28;19955;-82
2023/06/07 01:34:19;;;;;;;;;;;11.00;99.90;;;;;;5082864;28;19970;-82
2023/06/07 01:36:45;;;;;;;;;;;10.90;99.90;;;;;;5087864;28;20031;-82
2023/06/07 01:39:11;;;;;;;;;;;11.00;99.90;;;;;;5080518;28;19934;-82
2023/06/07 01:41:38;;;;;;;;;;;11.00;99.90;;;;;;5085031;28;20173;-82
2023/06/07 01:44:04;;;;;;;;;;;10.90;99.90;;;;;;5086782;28;20019;-82
2023/06/07 01:46:29;;;;;;;;;;;11.00;99.90;;;;;;5063239;28;20026;-81
2023/06/07 01:48:55;;;;;;;;;;;10.80;99.90;;;;;;5091934;28;19997;-81
2023/06/07 01:51:20;;;;;;;;;;;11.00;99.90;;;;;;5085437;28;19924;-82
2023/06/07 01:53:47;;;;;;;;;;;10.90;99.90;;;;;;5092965;28;19988;-82
2023/06/07 01:56:16;;;;;;;;;;;10.90;99.90;;;;;;5081174;28;19927;-82
2023/06/07 01:59:05;;;;;;;;;;;10.90;99.90;;;;;;5091836;28;19936;-82
2023/06/07 02:01:38;;;;;;;;;;;10.90;99.90;;;;;;5079199;28;19932;-81
2023/06/07 02:04:07;;;;;;;;;;;10.90;99.90;;;;;;5088467;28;20708;-82
2023/06/07 02:06:33;;;;;;;;;;;11.00;99.90;;;;;;5091043;28;19972;-81
2023/06/07 02:09:06;;;;;;;;;;;10.90;99.90;;;;;;5079716;28;19947;-81
2023/06/07 02:11:31;;;;;;;;;;;10.90;99.90;;;;;;5091497;28;20026;-81
2023/06/07 02:13:57;;;;;;;;;;;10.90;99.90;;;;;;5086822;28;20014;-82
2023/06/07 02:16:32;;;;;;;;;;;10.90;99.90;;;;;;5066766;28;19967;-82
2023/06/07 02:18:58;;;;;;;;;;;10.70;99.90;;;;;;5086133;28;20395;-82
2023/06/07 02:21:24;;;;;;;;;;;10.80;99.90;;;;;;5081091;28;19932;-81
2023/06/07 02:23:50;;;;;;;;;;;10.80;99.90;;;;;;5084792;28;20297;-81
2023/06/07 02:26:16;;;;;;;;;;;10.80;99.90;;;;;;5092300;28;19932;-82
2023/06/07 02:28:41;;;;;;;;;;;10.80;99.90;;;;;;5087220;28;19931;-82
2023/06/07 02:31:07;;;;;;;;;;;10.80;99.90;;;;;;5093672;28;20422;-82
2023/06/07 02:33:32;;;;;;;;;;;10.80;99.90;;;;;;5089481;28;20432;-82
2023/06/07 02:35:58;;;;;;;;;;;10.80;99.90;;;;;;5087536;28;19931;-82
2023/06/07 02:38:23;;;;;;;;;;;10.80;99.90;;;;;;5087697;28;19972;-81
2023/06/07 02:40:49;;;;;;;;;;;10.80;99.90;;;;;;5088592;28;19928;-81
2023/06/07 02:43:14;;;;;;;;;;;10.80;99.90;;;;;;5087940;28;19924;-82
2023/06/07 02:45:40;;;;;;;;;;;10.80;99.90;;;;;;5087895;28;19928;-82
2023/06/07 02:48:06;;;;;;;;;;;10.70;99.90;;;;;;5088978;28;20015;-82
2023/06/07 02:50:31;;;;;;;;;;;10.70;99.90;;;;;;5091517;28;19932;-82
2023/06/07 02:52:57;;;;;;;;;;;10.60;99.90;;;;;;5094337;28;19928;-82
2023/06/07 02:55:23;;;;;;;;;;;10.60;99.90;;;;;;5098604;28;20355;-82
2023/06/07 02:57:48;;;;;;;;;;;10.60;99.90;;;;;;5094476;28;20002;-82
2023/06/07 03:00:14;;;;;;;;;;;10.60;99.90;;;;;;5085322;28;20372;-82
2023/06/07 03:02:40;;;;;;;;;;;10.50;99.90;;;;;;5092319;28;19970;-82
2023/06/07 03:05:07;;;;;;;;;;;10.50;99.90;;;;;;5089371;28;19939;-81
2023/06/07 03:07:34;;;;;;;;;;;10.50;99.90;;;;;;5092340;28;20258;-81
2023/06/07 03:10:00;;;;;;;;;;;10.40;99.90;;;;;;5089213;28;19932;-81
2023/06/07 03:12:26;;;;;;;;;;;10.40;99.90;;;;;;5092216;28;20388;-81
2023/06/07 03:14:51;;;;;;;;;;;10.40;99.90;;;;;;5091194;28;19982;-81
2023/06/07 03:17:17;;;;;;;;;;;10.40;99.90;;;;;;5093001;28;19932;-82
2023/06/07 03:19:43;;;;;;;;;;;10.40;99.90;;;;;;5087953;28;19928;-81
2023/06/07 03:22:09;;;;;;;;;;;10.30;99.90;;;;;;5093281;28;19969;-82
2023/06/07 03:24:36;;;;;;;;;;;10.20;99.90;;;;;;5091084;28;19928;-81
2023/06/07 03:27:03;;;;;;;;;;;10.10;99.90;;;;;;5091260;28;19931;-82
2023/06/07 03:29:30;;;;;;;;;;;10.20;99.90;;;;;;5092690;28;19934;-82
2023/06/07 03:31:55;;;;;;;;;;;10.20;99.90;;;;;;5074336;28;19935;-81
2023/06/07 03:34:21;;;;;;;;;;;10.20;99.90;;;;;;5090339;28;19932;-81
2023/06/07 03:36:47;;;;;;;;;;;10.30;99.90;;;;;;5093606;28;19928;-82
2023/06/07 03:39:13;;;;;;;;;;;10.30;99.90;;;;;;5083697;28;19980;-82
2023/06/07 03:41:39;;;;;;;;;;;10.30;99.90;;;;;;5095175;28;19924;-82
2023/06/07 03:44:04;;;;;;;;;;;10.30;99.90;;;;;;5094676;28;19928;-82
2023/06/07 03:46:30;;;;;;;;;;;10.40;99.90;;;;;;5095856;28;19954;-81
2023/06/07 03:48:55;;;;;;;;;;;10.30;99.90;;;;;;5095351;28;19928;-81
2023/06/07 03:51:21;;;;;;;;;;;10.30;99.90;;;;;;5081258;28;19935;-81
2023/06/07 03:53:47;;;;;;;;;;;10.30;99.90;;;;;;5094175;28;19930;-82
2023/06/07 03:56:12;;;;;;;;;;;10.30;99.90;;;;;;5096204;28;19931;-82
2023/06/07 03:58:38;;;;;;;;;;;10.40;99.90;;;;;;5092978;28;19932;-82
2023/06/07 04:01:03;;;;;;;;;;;10.50;99.90;;;;;;5095428;28;20662;-81
2023/06/07 04:03:30;;;;;;;;;;;10.40;99.90;;;;;;5074778;28;19982;-81
2023/06/07 04:05:55;;;;;;;;;;;10.40;99.90;;;;;;5095682;28;19934;-81
2023/06/07 04:08:21;;;;;;;;;;;10.50;99.90;;;;;;5092738;28;20435;-81
2023/06/07 04:10:47;;;;;;;;;;;10.60;99.90;;;;;;5095633;28;19993;-81
2023/06/07 04:13:12;;;;;;;;;;;10.50;99.90;;;;;;5072800;28;20382;-81
2023/06/07 04:15:38;;;;;;;;;;;10.50;99.90;;;;;;5097304;28;20414;-81
2023/06/07 04:18:03;;;;;;;;;;;10.50;99.90;;;;;;5092286;28;19928;-82
2023/06/07 04:20:29;;;;;;;;;;;10.60;99.90;;;;;;5071937;28;20304;-82
2023/06/07 04:22:55;;;;;;;;;;;10.60;99.90;;;;;;5096355;28;19928;-82
2023/06/07 04:25:24;;;;;;;;;;;10.70;99.90;;;;;;5088270;28;19932;-82
2023/06/07 04:27:51;;;;;;;;;;;10.80;99.90;;;;;;5091169;28;19928;-82
2023/06/07 04:30:18;;;;;;;;;;;10.90;99.90;;;;;;5091174;28;19932;-82
2023/06/07 04:32:44;;;;;;;;;;;10.90;99.90;;;;;;5087539;28;20472;-81
2023/06/07 04:35:11;;;;;;;;;;;11.10;99.90;;;;;;5093247;28;20649;-81
2023/06/07 04:37:37;;;;;;;;;;;11.20;99.90;;;;;;5090986;28;19925;-82
2023/06/07 04:40:03;;;;;;;;;;;11.30;99.90;;;;;;5089571;28;19928;-81
2023/06/07 04:42:29;;;;;;;;;;;11.40;99.90;;;;;;5093543;28;19924;-81
2023/06/07 04:44:54;;;;;;;;;;;11.50;99.90;;;;;;5095365;28;19928;-82
2023/06/07 04:47:20;;;;;;;;;;;11.60;99.90;;;;;;5089320;28;19943;-81
2023/06/07 04:49:46;;;;;;;;;;;11.60;99.90;;;;;;5074777;28;19935;-81
2023/06/07 04:52:12;;;;;;;;;;;11.60;99.90;;;;;;5090094;28;19939;-83
2023/06/07 04:54:39;;;;;;;;;;;11.60;99.90;;;;;;5090532;28;20058;-82
2023/06/07 04:57:06;;;;;;;;;;;11.70;99.90;;;;;;5094261;28;20584;-81
2023/06/07 04:59:34;;;;;;;;;;;11.70;99.90;;;;;;5092060;28;20427;-82
2023/06/07 05:02:01;;;;;;;;;;;11.70;99.90;;;;;;5091776;28;19971;-82
2023/06/07 05:04:27;;;;;;;;;;;11.90;99.90;;;;;;5091393;28;19939;-84
2023/06/07 05:06:58;;;;;;;;;;;11.90;99.90;;;;;;5094792;28;19927;-83
2023/06/07 05:09:24;;;;;;;;;;;12.00;99.90;;;;;;5075687;28;20531;-83
2023/06/07 05:11:49;;;;;;;;;;;12.00;99.90;;;;;;5069162;28;19935;-82
2023/06/07 05:14:15;;;;;;;;;;;12.10;99.90;;;;;;5071813;28;19924;-83
2023/06/07 05:16:43;;;;;;;;;;;12.10;99.90;;;;;;5094791;28;19989;-83
2023/06/07 05:19:11;;;;;;;;;;;12.10;99.90;;;;;;5096169;28;19947;-82
2023/06/07 05:21:36;;;;;;;;;;;12.20;99.90;;;;;;5083994;28;20400;-81
2023/06/07 05:24:02;;;;;;;;;;;12.20;99.90;;;;;;5094927;28;19967;-82
2023/06/07 05:26:28;;;;;;;;;;;12.20;99.90;;;;;;5094247;28;19928;-83
2023/06/07 05:28:53;;;;;;;;;;;12.30;99.90;;;;;;5074274;28;19932;-81
2023/06/07 05:31:19;;;;;;;;;;;12.20;99.90;;;;;;5092982;28;19935;-83
2023/06/07 05:33:45;;;;;;;;;;;12.30;99.90;;;;;;5092834;28;19932;-83
2023/06/07 05:36:11;;;;;;;;;;;12.40;99.90;;;;;;5094432;28;19928;-84
2023/06/07 05:38:37;;;;;;;;;;;12.40;99.90;;;;;;5095527;28;20403;-83
2023/06/07 05:41:02;;;;;;;;;;;12.20;99.90;;;;;;5092505;28;19928;-82
2023/06/07 05:43:28;;;;;;;;;;;12.40;99.90;;;;;;5068367;28;19928;-83
2023/06/07 05:45:54;;;;;;;;;;;12.60;99.90;;;;;;5095278;28;20022;-82
2023/06/07 05:48:19;;;;;;;;;;;12.70;99.90;;;;;;5088590;28;19935;-83
2023/06/07 05:50:45;;;;;;;;;;;12.80;99.90;;;;;;5090318;28;19924;-82
2023/06/07 05:53:11;;;;;;;;;;;12.90;99.90;;;;;;5092050;28;19930;-81
2023/06/07 05:55:36;;;;;;;;;;;13.10;99.90;;;;;;5085904;28;19947;-82
2023/06/07 05:58:03;;;;;;;;;;;13.20;99.90;;;;;;5063878;28;19924;-81
2023/06/07 06:00:30;;;;;;;;;;;13.20;99.90;;;;;;5070242;28;19932;-81
2023/06/07 06:02:56;;;;;;;;;;;13.60;99.90;;;;;;5086338;28;20690;-83
2023/06/07 06:05:27;;;;;;;;;;;13.60;99.90;;;;;;5092489;28;19932;-82
2023/06/07 06:07:53;;;;;;;;;;;13.50;99.90;;;;;;5078606;28;20204;-81
2023/06/07 06:10:18;;;;;;;;;;;13.80;99.90;;;;;;5094895;28;20030;-81
2023/06/07 06:12:44;;;;;;;;;;;13.70;99.90;;;;;;5085251;28;19928;-82
2023/06/07 06:15:10;;;;;;;;;;;14.30;99.90;;;;;;5075534;28;20339;-82
2023/06/07 06:17:35;;;;;;;;;;;15.10;99.90;;;;;;5093153;28;20026;-82
2023/06/07 06:20:02;;;;;;;;;;;15.60;99.90;;;;;;5094639;28;19932;-83
2023/06/07 06:22:28;;;;;;;;;;;15.70;99.90;;;;;;5090918;28;20723;-81
2023/06/07 06:24:54;;;;;;;;;;;15.50;99.90;;;;;;5093930;28;19974;-82
2023/06/07 06:27:20;;;;;;;;;;;15.40;99.90;;;;;;5095432;28;20090;-83
2023/06/07 06:29:49;;;;;;;;;;;15.60;99.90;;;;;;5095043;28;19927;-82
2023/06/07 06:32:14;;;;;;;;;;;16.10;99.90;;;;;;5093500;28;20012;-82
2023/06/07 06:34:40;;;;;;;;;;;16.50;99.90;;;;;;5090823;28;20007;-82
2023/06/07 06:37:06;;;;;;;;;;;16.30;99.90;;;;;;5093970;28;19928;-83
2023/06/07 06:39:32;;;;;;;;;;;16.40;99.90;;;;;;5078377;28;19933;-82
2023/06/07 06:41:58;;;;;;;;;;;17.10;99.90;;;;;;5097989;28;19930;-83
2023/06/07 06:44:23;;;;;;;;;;;17.40;99.90;;;;;;5094612;28;19924;-82
2023/06/07 06:46:49;;;;;;;;;;;17.50;99.90;;;;;;5097024;28;19934;-82
2023/06/07 06:49:15;;;;;;;;;;;17.50;99.90;;;;;;5098511;28;19928;-83
2023/06/07 06:51:40;;;;;;;;;;;17.40;99.90;;;;;;5096389;28;19974;-83
2023/06/07 06:54:06;;;;;;;;;;;17.30;99.90;;;;;;5100819;28;20456;-84
2023/06/07 06:56:31;;;;;;;;;;;17.30;99.90;;;;;;5097064;28;19932;-83
2023/06/07 06:58:57;;;;;;;;;;;17.80;99.90;;;;;;5099810;28;19931;-84
2023/06/07 07:01:23;;;;;;;;;;;17.10;99.90;;;;;;5092801;28;19967;-82
2023/06/07 07:03:48;;;;;;;;;;;18.20;99.90;;;;;;5097896;28;19934;-84
2023/06/07 07:06:16;;;;;;;;;;;18.40;99.90;;;;;;5096512;28;19931;-84
2023/06/07 07:08:42;;;;;;;;;;;18.10;99.90;;;;;;5089235;28;19933;-84
2023/06/07 07:11:07;;;;;;;;;;;18.30;99.90;;;;;;5095197;28;20340;-84
2023/06/07 07:13:33;;;;;;;;;;;17.80;99.90;;;;;;5095349;28;19924;-85
2023/06/07 07:15:58;;;;;;;;;;;17.60;99.90;;;;;;5101441;28;20381;-84
2023/06/07 07:18:24;;;;;;;;;;;18.00;99.90;;;;;;5083010;28;20297;-83
2023/06/07 07:20:49;;;;;;;;;;;17.90;99.90;;;;;;5079458;28;19931;-82
2023/06/07 07:23:16;;;;;;;;;;;17.90;99.90;;;;;;5103051;28;19985;-83
2023/06/07 07:25:42;;;;;;;;;;;17.90;99.90;;;;;;5098843;28;19931;-83
2023/06/07 07:28:08;;;;;;;;;;;18.20;99.90;;;;;;5102324;28;19928;-82
2023/06/07 07:30:33;;;;;;;;;;;17.90;99.90;;;;;;5099399;28;19950;-83
2023/06/07 07:33:00;;;;;;;;;;;18.30;99.90;;;;;;5103147;28;19923;-84
2023/06/07 07:35:26;;;;;;;;;;;17.90;99.90;;;;;;5099709;28;20620;-83
2023/06/07 07:37:53;;;;;;;;;;;17.80;99.90;;;;;;5099338;28;19988;-84
2023/06/07 07:40:19;;;;;;;;;;;17.70;99.90;;;;;;5099900;28;19932;-84
2023/06/07 07:42:45;;;;;;;;;;;18.30;99.90;;;;;;5099811;28;19942;-84
2023/06/07 07:45:10;;;;;;;;;;;18.10;99.90;;;;;;5102753;28;20571;-83
2023/06/07 07:47:36;;;;;;;;;;;18.00;99.90;;;;;;5100112;28;20366;-84
2023/06/07 07:50:04;;;;;;;;;;;18.20;99.90;;;;;;5103674;28;19934;-84
2023/06/07 07:52:29;;;;;;;;;;;17.70;99.90;;;;;;5101286;28;19924;-82
2023/06/07 07:54:55;;;;;;;;;;;18.00;99.90;;;;;;5103426;28;19935;-83
2023/06/07 07:57:20;;;;;;;;;;;18.10;99.90;;;;;;5098490;28;20031;-83
2023/06/07 07:59:46;;;;;;;;;;;18.30;99.90;;;;;;5102507;28;20296;-83
2023/06/07 08:02:12;;;;;;;;;;;18.30;99.90;;;;;;5096762;28;21909;-86
2023/06/07 08:04:37;;;;;;;;;;;18.20;99.90;;;;;;5084349;28;19932;-85
2023/06/07 08:07:03;;;;;;;;;;;18.20;99.90;;;;;;5093071;28;19932;-85
2023/06/07 08:09:28;;;;;;;;;;;18.30;99.90;;;;;;5083018;28;20288;-82
2023/06/07 08:11:54;;;;;;;;;;;18.10;99.90;;;;;;5093414;28;19943;-83
2023/06/07 08:14:20;;;;;;;;;;;17.90;99.90;;;;;;5083638;28;19935;-83
2023/06/07 08:16:46;;;;;;;;;;;18.20;99.90;;;;;;5098396;28;19932;-82
2023/06/07 08:19:11;;;;;;;;;;;18.30;99.90;;;;;;5097673;28;19928;-83
2023/06/07 08:21:37;;;;;;;;;;;18.40;99.90;;;;;;5098500;28;20074;-84
2023/06/07 08:24:03;;;;;;;;;;;18.40;99.90;;;;;;5101078;28;19997;-84
2023/06/07 08:26:28;;;;;;;;;;;17.90;99.90;;;;;;5082022;28;20053;-84
2023/06/07 08:28:54;;;;;;;;;;;18.40;99.90;;;;;;5084124;28;19928;-84
2023/06/07 08:31:19;;;;;;;;;;;18.10;99.90;;;;;;5096115;28;19940;-82
2023/06/07 08:33:45;;;;;;;;;;;18.20;99.90;;;;;;5099809;28;19924;-83
2023/06/07 08:36:11;;;;;;;;;;;18.20;99.90;;;;;;5097388;28;20289;-84
2023/06/07 08:38:41;;;;;;;;;;;18.80;99.90;;;;;;5088032;28;19932;-82
2023/06/07 08:41:07;;;;;;;;;;;19.30;99.90;;;;;;5098039;28;19923;-82
2023/06/07 08:43:32;;;;;;;;;;;19.50;99.90;;;;;;5097874;28;20534;-83
2023/06/07 08:46:00;;;;;;;;;;;19.80;99.90;;;;;;5096478;28;19935;-83
2023/06/07 08:48:26;;;;;;;;;;;20.00;99.90;;;;;;5096904;28;19927;-84
2023/06/07 08:50:53;;;;;;;;;;;20.40;99.90;;;;;;5097209;28;20518;-83
2023/06/07 08:53:26;;;;;;;;;;;20.40;99.90;;;;;;5103077;28;19924;-83
2023/06/07 08:55:53;;;;;;;;;;;20.30;99.90;;;;;;5099449;28;20472;-83
2023/06/07 08:58:20;;;;;;;;;;;20.90;99.90;;;;;;5098209;28;19923;-84
2023/06/07 09:00:46;;;;;;;;;;;20.90;99.90;;;;;;5100873;28;20018;-83
2023/06/07 09:03:12;;;;;;;;;;;21.10;99.90;;;;;;5101213;28;19928;-84
2023/06/07 09:05:37;;;;;;;;;;;20.70;99.90;;;;;;5099142;28;19936;-84
2023/06/07 09:08:03;;;;;;;;;;;20.70;99.90;;;;;;5098482;28;20373;-84
2023/06/07 09:10:29;;;;;;;;;;;21.10;99.90;;;;;;5078156;28;20389;-83
2023/06/07 09:12:55;;;;;;;;;;;21.40;99.90;;;;;;5094824;28;19924;-84
2023/06/07 09:15:21;;;;;;;;;;;21.10;99.90;;;;;;5096170;28;20134;-85
2023/06/07 09:17:53;;;;;;;;;;;21.40;99.90;;;;;;5094262;28;19935;-85
2023/06/07 09:20:23;;;;;;;;;;;22.00;99.90;;;;;;5091253;28;20022;-86
2023/06/07 09:22:56;;;;;;;;;;;21.50;99.90;;;;;;5098874;28;20358;-84
2023/06/07 09:25:22;;;;;;;;;;;22.10;99.90;;;;;;5084666;28;19927;-85
2023/06/07 09:27:51;;;;;;;;;;;21.90;99.90;;;;;;5082881;28;19927;-87
2023/06/07 09:30:18;;;;;;;;;;;22.40;99.90;;;;;;5093842;28;19928;-87
2023/06/07 09:32:43;;;;;;;;;;;21.30;99.90;;;;;;5094836;28;19928;-85
2023/06/07 09:35:16;;;;;;;;;;;21.90;99.90;;;;;;5100306;28;20403;-84
2023/06/07 09:37:43;;;;;;;;;;;22.20;99.90;;;;;;5098682;28;19928;-84
2023/06/07 09:40:09;;;;;;;;;;;22.10;99.90;;;;;;5098972;28;19928;-84
2023/06/07 09:42:35;;;;;;;;;;;22.10;99.90;;;;;;5095315;28;19935;-88
2023/06/07 09:45:14;;;;;;;;;;;22.30;99.90;;;;;;5099215;28;19927;-84
2023/06/07 09:47:41;;;;;;;;;;;22.60;99.90;;;;;;5094668;28;19950;-84
2023/06/07 09:50:07;;;;;;;;;;;22.70;99.90;;;;;;5099691;28;20474;-85
2023/06/07 09:52:33;;;;;;;;;;;22.30;99.90;;;;;;5078771;28;19924;-87
2023/06/07 09:54:58;;;;;;;;;;;22.20;99.90;;;;;;5099180;28;19928;-86
2023/06/07 09:57:24;;;;;;;;;;;22.50;99.90;;;;;;5097508;28;20014;-85
2023/06/07 10:00:16;;;;;;;;;;;22.40;99.90;;;;;;5096853;28;20027;-85
2023/06/07 10:02:42;;;;;;;;;;;22.70;99.90;;;;;;5081048;28;19970;-86
2023/06/07 10:05:09;;;;;;;;;;;22.80;99.90;;;;;;5096726;28;19977;-86
2023/06/07 10:07:36;;;;;;;;;;;22.20;99.90;;;;;;5096576;28;19927;-85
2023/06/07 10:10:02;;;;;;;;;;;22.40;99.90;;;;;;5097787;28;19988;-85
2023/06/07 10:12:29;;;;;;;;;;;22.80;99.90;;;;;;5093000;28;19928;-85
2023/06/07 10:14:54;;;;;;;;;;;22.90;99.90;;;;;;5080103;28;19932;-85
2023/06/07 10:17:23;;;;;;;;;;;23.10;99.90;;;;;;5100613;28;19924;-85
2023/06/07 10:19:49;;;;;;;;;;;22.80;99.90;;;;;;5097238;28;20362;-85
2023/06/07 10:22:16;;;;;;;;;;;23.00;99.90;;;;;;5097383;28;19961;-83
2023/06/07 10:25:00;;;;;;;;;;;23.20;99.90;;;;;;5093127;28;20014;-88
2023/06/07 10:27:26;;;;;;;;;;;22.70;99.90;;;;;;5093120;28;20073;-83
2023/06/07 10:29:58;;;;;;;;;;;24.00;99.90;;;;;;5094326;28;19932;-86
2023/06/07 10:32:29;;;;;;;;;;;23.30;99.90;;;;;;5095685;28;20029;-86
2023/06/07 10:34:55;;;;;;;;;;;23.70;99.90;;;;;;5091369;28;19928;-88
2023/06/07 10:37:20;;;;;;;;;;;23.80;99.90;;;;;;5078556;28;19932;-86
2023/06/07 10:39:46;;;;;;;;;;;24.50;99.90;;;;;;5096962;28;20019;-85
2023/06/07 10:42:12;;;;;;;;;;;23.70;99.90;;;;;;5072541;28;19928;-86
2023/06/07 10:44:38;;;;;;;;;;;23.70;99.90;;;;;;5081839;28;19934;-85
2023/06/07 10:47:22;;;;;;;;;;;24.50;99.90;;;;;;5098147;28;19928;-85
2023/06/07 10:49:48;;;;;;;;;;;24.70;99.90;;;;;;5097953;28;19928;-85
2023/06/07 10:52:15;;;;;;;;;;;24.60;99.90;;;;;;5080899;28;19941;-85
2023/06/07 10:54:41;;;;;;;;;;;25.10;99.90;;;;;;5104112;28;19927;-87
2023/06/07 10:57:07;;;;;;;;;;;24.00;99.90;;;;;;5098472;28;19985;-85
2023/06/07 10:59:33;;;;;;;;;;;25.10;99.90;;;;;;5097323;28;19935;-85
2023/06/07 11:02:17;;;;;;;;;;;25.00;99.90;;;;;;5097693;28;20306;-89
2023/06/07 11:04:50;;;;;;;;;;;25.00;99.90;;;;;;5084458;28;19985;-85
2023/06/07 11:07:20;;;;;;;;;;;24.40;99.90;;;;;;5103555;28;19927;-85
2023/06/07 11:09:48;;;;;;;;;;;24.30;99.90;;;;;;5101042;28;19928;-85
2023/06/07 11:12:32;;;;;;;;;;;25.10;99.90;;;;;;5102875;28;19934;-87
2023/06/07 11:15:16;;;;;;;;;;;25.00;99.90;;;;;;5101622;28;19924;-86
2023/06/07 11:17:52;;;;;;;;;;;24.80;99.90;;;;;;5081669;28;20541;-87
2023/06/07 11:20:38;;;;;;;;;;;24.90;99.90;;;;;;5100408;28;20003;-87
2023/06/07 11:23:23;;;;;;;;;;;24.90;99.90;;;;;;5096894;28;19924;-85
2023/06/07 11:25:51;;;;;;;;;;;25.80;99.90;;;;;;5084194;28;19980;-86
2023/06/07 11:28:24;;;;;;;;;;;25.40;99.90;;;;;;5105572;28;19977;-86
2023/06/07 11:30:51;;;;;;;;;;;25.50;99.90;;;;;;5100899;28;19970;-87
2023/06/07 11:33:16;;;;;;;;;;;26.00;99.90;;;;;;5102754;28;19959;-85
2023/06/07 11:35:42;;;;;;;;;;;25.20;99.90;;;;;;5081461;28;19967;-86
2023/06/07 11:38:11;;;;;;;;;;;26.10;99.90;;;;;;5084411;28;19928;-88
2023/06/07 11:40:36;;;;;;;;;;;26.50;99.90;;;;;;5095284;28;19924;-85
2023/06/07 11:43:02;;;;;;;;;;;25.80;99.90;;;;;;5097005;28;19927;-88
2023/06/07 11:45:28;;;;;;;;;;;25.80;99.90;;;;;;5100905;28;20387;-90
2023/06/07 11:48:00;;;;;;;;;;;25.40;99.90;;;;;;5102017;28;20351;-87
2023/06/07 11:50:25;;;;;;;;;;;24.60;99.90;;;;;;5103443;28;19928;-90
2023/06/07 11:52:55;;;;;;;;;;;25.40;99.90;;;;;;5104350;28;20427;-89
2023/06/07 11:55:21;;;;;;;;;;;25.30;99.90;;;;;;5082928;28;20288;-87
2023/06/07 11:57:52;;;;;;;;;;;25.60;99.90;;;;;;5088412;28;20002;-89
2023/06/07 12:00:20;;;;;;;;;;;24.80;99.90;;;;;;5101658;28;19935;-88
2023/06/07 12:02:47;;;;;;;;;;;25.40;99.90;;;;;;5102777;28;19992;-88
2023/06/07 12:05:13;;;;;;;;;;;25.60;99.90;;;;;;5100850;28;19930;-86
2023/06/07 12:07:40;;;;;;;;;;;25.60;99.90;;;;;;5098159;28;20038;-85
2023/06/07 12:10:06;;;;;;;;;;;25.60;99.90;;;;;;5099656;28;19924;-88
2023/06/07 12:12:32;;;;;;;;;;;26.10;99.90;;;;;;5099107;28;20452;-85
2023/06/07 12:15:01;;;;;;;;;;;26.80;99.90;;;;;;5101183;28;19958;-87
2023/06/07 12:17:34;;;;;;;;;;;26.60;99.90;;;;;;5102675;28;20676;-87
2023/06/07 12:20:12;;;;;;;;;;;26.40;99.90;;;;;;5100592;28;19924;-87
2023/06/07 12:22:38;;;;;;;;;;;25.90;99.90;;;;;;5082714;28;19928;-88
2023/06/07 12:25:08;;;;;;;;;;;25.80;99.90;;;;;;5104001;28;20371;-85
2023/06/07 12:27:34;;;;;;;;;;;26.20;99.90;;;;;;5100320;28;20373;-85
2023/06/07 12:29:59;;;;;;;;;;;26.80;99.90;;;;;;5079481;28;19928;-88
2023/06/07 12:32:25;;;;;;;;;;;26.80;99.90;;;;;;5100372;28;19935;-88
2023/06/07 12:34:51;;;;;;;;;;;26.40;99.90;;;;;;5082694;28;19924;-85
2023/06/07 12:37:17;;;;;;;;;;;26.50;99.90;;;;;;5102838;28;20010;-85
2023/06/07 12:39:43;;;;;;;;;;;26.80;99.90;;;;;;5102060;28;19934;-85
2023/06/07 12:42:08;;;;;;;;;;;27.10;99.90;;;;;;5097555;28;19924;-88
2023/06/07 12:44:35;;;;;;;;;;;26.70;99.90;;;;;;5100933;28;19935;-88
2023/06/07 12:47:00;;;;;;;;;;;26.70;99.90;;;;;;5095599;28;19927;-84
2023/06/07 12:49:26;;;;;;;;;;;26.80;99.90;;;;;;5102476;28;19928;-88
2023/06/07 12:51:52;;;;;;;;;;;27.40;99.90;;;;;;5097955;28;20744;-87
2023/06/07 12:54:17;;;;;;;;;;;27.20;99.90;;;;;;5085771;28;20632;-87
2023/06/07 12:56:43;;;;;;;;;;;26.90;99.90;;;;;;5097364;28;19928;-85
2023/06/07 12:59:08;;;;;;;;;;;27.20;99.80;;;;;;5100360;28;20014;-87
2023/06/07 13:01:34;;;;;;;;;;;27.40;98.80;;;;;;5081828;28;19935;-87
2023/06/07 13:04:00;;;;;;;;;;;26.70;99.60;;;;;;5100883;28;19928;-87
2023/06/07 13:06:28;;;;;;;;;;;26.90;98.90;;;;;;5097161;28;20396;-83
2023/06/07 13:08:56;;;;;;;;;;;27.30;99.90;;;;;;5099183;28;19924;-85
2023/06/07 13:11:22;;;;;;;;;;;26.30;99.10;;;;;;5080085;28;20183;-87
2023/06/07 13:13:48;;;;;;;;;;;26.00;99.60;;;;;;5097991;28;19952;-86
2023/06/07 13:16:14;;;;;;;;;;;26.00;99.20;;;;;;5099316;28;19973;-85
2023/06/07 13:18:39;;;;;;;;;;;26.60;99.40;;;;;;5098738;28;19928;-88
2023/06/07 13:21:05;;;;;;;;;;;26.50;99.20;;;;;;5098125;28;19942;-85
2023/06/07 13:23:31;;;;;;;;;;;26.30;99.80;;;;;;5081859;28;20381;-84
2023/06/07 13:25:56;;;;;;;;;;;26.90;99.10;;;;;;5089438;28;19951;-89
2023/06/07 13:28:22;;;;;;;;;;;26.80;97.90;;;;;;5073081;28;19931;-87
2023/06/07 13:30:47;;;;;;;;;;;26.20;97.80;;;;;;5088650;28;20026;-89
2023/06/07 13:33:16;;;;;;;;;;;25.80;98.50;;;;;;5100943;28;19935;-87
2023/06/07 13:35:42;;;;;;;;;;;26.30;99.20;;;;;;5077844;28;19932;-86
2023/06/07 13:38:07;;;;;;;;;;;26.90;99.60;;;;;;5089113;28;20956;-84
2023/06/07 13:40:33;;;;;;;;;;;27.30;98.20;;;;;;5088945;28;19928;-90
2023/06/07 13:42:59;;;;;;;;;;;26.50;97.70;;;;;;5089074;28;19978;-88
2023/06/07 13:45:24;;;;;;;;;;;26.80;99.60;;;;;;5106415;27;20365;-85
2023/06/07 13:47:50;;;;;;;;;;;27.00;99.10;;;;;;5094175;28;20287;-86
2023/06/07 13:50:15;;;;;;;;;;;26.70;98.60;;;;;;5094016;28;21365;-86
2023/06/07 13:52:41;;;;;;;;;;;27.30;96.80;;;;;;5095557;28;20335;-85
2023/06/07 13:55:08;;;;;;;;;;;27.60;99.00;;;;;;5090760;28;19924;-85
2023/06/07 13:57:35;;;;;;;;;;;27.30;97.30;;;;;;5092785;28;20010;-84
2023/06/07 14:00:01;;;;;;;;;;;27.20;98.10;;;;;;5091560;28;20727;-89
2023/06/07 14:02:26;;;;;;;;;;;27.50;98.40;;;;;;5092643;28;20011;-84
2023/06/07 14:04:52;;;;;;;;;;;27.60;98.30;;;;;;5092499;28;20332;-85
2023/06/07 14:07:17;;;;;;;;;;;27.70;97.30;;;;;;5093844;28;19932;-85
2023/06/07 14:09:43;;;;;;;;;;;27.10;96.90;;;;;;5090868;28;20038;-86
2023/06/07 14:12:10;;;;;;;;;;;26.90;99.20;;;;;;5089883;28;19924;-86
2023/06/07 14:14:35;;;;;;;;;;;27.50;98.20;;;;;;5092751;28;19935;-90